Time;durP1;ratioP1;P1;durP2;ratioP2;P2;SDS_P1;SDS_P2;PMS_P1;PMS_P2;Temp;Humidity;BMP_temperature;BMP_pressure;BME280_temperature;BME280_humidity;BME280_pressure;Samples;Min_cycle;Max_cycle;Signal;HPM_P1;HPM_P2
2023/01/23 00:02:16;;;;;;;16.60;11.87;;;;;;;;;;5058679;28;20302;-75
2023/01/23 00:04:43;;;;;;;17.63;12.50;;;;;;;;;;5056928;28;20204;-75
2023/01/23 00:07:10;;;;;;;18.60;13.40;;;;;;;;;;5054503;28;20229;-75
2023/01/23 00:09:38;;;;;;;18.17;12.50;;;;;;;;;;5051298;28;20199;-76
2023/01/23 00:12:05;;;;;;;17.87;12.17;;;;;;;;;;5044177;28;20203;-76
2023/01/23 00:14:32;;;;;;;15.80;11.70;;;;;;;;;;5047183;28;20605;-76
2023/01/23 00:16:59;;;;;;;16.77;11.33;;;;;;;;;;5045260;28;20312;-74
2023/01/23 00:19:26;;;;;;;18.13;12.33;;;;;;;;;;5043402;28;20371;-75
2023/01/23 00:21:54;;;;;;;18.13;12.43;;;;;;;;;;5040187;28;20239;-74
2023/01/23 00:24:21;;;;;;;19.53;12.73;;;;;;;;;;5039189;28;20214;-76
2023/01/23 00:26:48;;;;;;;18.97;12.63;;;;;;;;;;5045183;28;20228;-75
2023/01/23 00:29:16;;;;;;;16.27;11.33;;;;;;;;;;5041335;28;20552;-76
2023/01/23 00:31:43;;;;;;;18.17;12.57;;;;;;;;;;5045507;28;20315;-76
2023/01/23 00:34:12;;;;;;;20.13;13.60;;;;;;;;;;5041810;28;20429;-76
2023/01/23 00:36:41;;;;;;;18.37;12.77;;;;;;;;;;5040455;28;20201;-75
2023/01/23 00:39:12;;;;;;;18.77;12.97;;;;;;;;;;5040985;28;20207;-76
2023/01/23 00:41:39;;;;;;;21.50;13.30;;;;;;;;;;5039068;28;20235;-75
2023/01/23 00:44:07;;;;;;;20.77;13.37;;;;;;;;;;5045756;28;20200;-75
2023/01/23 00:46:35;;;;;;;17.17;12.70;;;;;;;;;;5035918;28;20232;-76
2023/01/23 00:49:02;;;;;;;16.53;12.20;;;;;;;;;;5046067;28;20212;-75
2023/01/23 00:51:30;;;;;;;18.90;13.13;;;;;;;;;;5043247;28;20241;-75
2023/01/23 00:53:57;;;;;;;18.03;12.87;;;;;;;;;;5037369;28;20223;-75
2023/01/23 00:56:26;;;;;;;19.70;13.57;;;;;;;;;;5044578;28;20215;-75
2023/01/23 00:58:53;;;;;;;17.40;12.53;;;;;;;;;;5036738;28;20211;-75
2023/01/23 01:01:21;;;;;;;22.20;13.67;;;;;;;;;;5045692;28;20713;-76
2023/01/23 01:03:49;;;;;;;18.17;13.10;;;;;;;;;;5038764;28;20208;-75
2023/01/23 01:06:17;;;;;;;19.00;12.67;;;;;;;;;;5045385;28;20361;-75
2023/01/23 01:08:44;;;;;;;20.93;12.97;;;;;;;;;;5041836;28;20282;-75
2023/01/23 01:11:11;;;;;;;19.00;13.20;;;;;;;;;;5044742;28;20235;-75
2023/01/23 01:13:38;;;;;;;18.43;12.63;;;;;;;;;;5046735;28;20213;-75
2023/01/23 01:16:06;;;;;;;22.40;13.90;;;;;;;;;;5044724;28;20217;-75
2023/01/23 01:18:33;;;;;;;19.80;13.07;;;;;;;;;;5041335;28;20693;-75
2023/01/23 01:21:01;;;;;;;18.73;12.57;;;;;;;;;;5044638;28;20323;-75
2023/01/23 01:23:28;;;;;;;18.33;12.03;;;;;;;;;;5044966;28;20209;-75
2023/01/23 01:25:58;;;;;;;19.13;13.23;;;;;;;;;;5044060;28;20307;-76
2023/01/23 01:28:27;;;;;;;17.57;11.77;;;;;;;;;;5041296;28;20300;-74
2023/01/23 01:30:54;;;;;;;17.80;12.43;;;;;;;;;;5045894;28;20234;-75
2023/01/23 01:33:23;;;;;;;16.33;11.40;;;;;;;;;;5045431;28;20680;-75
2023/01/23 01:35:50;;;;;;;15.07;11.23;;;;;;;;;;5058930;28;20299;-76
2023/01/23 01:38:17;;;;;;;17.33;12.13;;;;;;;;;;5059063;28;20264;-75
2023/01/23 01:40:45;;;;;;;16.77;11.97;;;;;;;;;;5058880;28;20263;-74
2023/01/23 01:43:31;;;;;;;16.53;11.70;;;;;;;;;;5056597;28;20863;-76
2023/01/23 01:46:10;;;;;;;17.87;11.93;;;;;;;;;;5057738;28;20309;-75
2023/01/23 01:48:43;;;;;;;16.37;11.47;;;;;;;;;;5059400;28;20293;-75
2023/01/23 01:51:22;;;;;;;14.23;10.43;;;;;;;;;;5057312;28;20231;-75
2023/01/23 01:53:54;;;;;;;13.20;9.70;;;;;;;;;;5051725;28;20841;-75
2023/01/23 01:56:22;;;;;;;14.80;9.73;;;;;;;;;;5040629;28;20329;-75
2023/01/23 01:58:51;;;;;;;13.47;9.67;;;;;;;;;;5042917;28;20218;-76
2023/01/23 02:01:19;;;;;;;13.27;9.07;;;;;;;;;;5039200;28;20325;-74
2023/01/23 02:03:47;;;;;;;10.93;8.70;;;;;;;;;;5043319;28;20208;-74
2023/01/23 02:06:14;;;;;;;13.30;9.20;;;;;;;;;;5038911;28;20219;-75
2023/01/23 02:08:41;;;;;;;11.93;8.53;;;;;;;;;;5046997;28;20210;-74
2023/01/23 02:11:09;;;;;;;8.80;6.90;;;;;;;;;;5044854;28;20230;-75
2023/01/23 02:13:38;;;;;;;6.67;5.97;;;;;;;;;;5046753;28;20207;-76
2023/01/23 02:16:10;;;;;;;6.07;5.43;;;;;;;;;;5044741;28;20294;-76
2023/01/23 02:18:41;;;;;;;6.87;5.60;;;;;;;;;;5047064;28;20215;-75
2023/01/23 02:21:09;;;;;;;6.07;5.23;;;;;;;;;;5051462;28;20325;-76
2023/01/23 02:23:46;;;;;;;6.30;5.47;;;;;;;;;;5045196;28;20210;-75
2023/01/23 02:26:16;;;;;;;7.43;6.30;;;;;;;;;;5043240;28;20599;-76
2023/01/23 02:28:45;;;;;;;6.37;5.17;;;;;;;;;;5045252;28;20206;-76
2023/01/23 02:31:13;;;;;;;7.23;5.60;;;;;;;;;;5039589;28;20342;-75
2023/01/23 02:33:43;;;;;;;7.37;5.87;;;;;;;;;;5043560;28;20227;-75
2023/01/23 02:36:11;;;;;;;6.00;5.40;;;;;;;;;;5041309;28;20199;-75
2023/01/23 02:38:57;;;;;;;6.63;5.80;;;;;;;;;;5038017;28;20212;-74
2023/01/23 02:41:27;;;;;;;6.00;5.30;;;;;;;;;;5040317;28;20220;-74
2023/01/23 02:43:56;;;;;;;6.90;6.20;;;;;;;;;;5047069;28;20210;-75
2023/01/23 02:46:24;;;;;;;6.37;5.30;;;;;;;;;;5045667;28;20221;-74
2023/01/23 02:48:52;;;;;;;6.53;5.67;;;;;;;;;;5045106;28;20257;-76
2023/01/23 02:51:21;;;;;;;7.50;5.87;;;;;;;;;;5045983;28;20842;-76
2023/01/23 02:53:48;;;;;;;6.23;5.37;;;;;;;;;;5042204;28;20651;-75
2023/01/23 02:56:15;;;;;;;7.13;5.20;;;;;;;;;;5046482;28;20202;-75
2023/01/23 03:01:50;;;;;;;6.93;5.03;;;;;;;;;;4969588;28;20253;-76
2023/01/23 03:04:17;;;;;;;9.60;6.33;;;;;;;;;;5019641;28;21480;-75
2023/01/23 03:06:44;;;;;;;9.67;6.57;;;;;;;;;;5050589;28;20219;-75
2023/01/23 03:09:12;;;;;;;8.33;5.93;;;;;;;;;;5037291;28;20212;-75
2023/01/23 03:11:41;;;;;;;8.07;6.10;;;;;;;;;;5047561;28;20219;-75
2023/01/23 03:14:11;;;;;;;7.67;5.73;;;;;;;;;;5048472;28;20294;-75
2023/01/23 03:16:39;;;;;;;6.30;5.33;;;;;;;;;;5049380;28;22054;-75
2023/01/23 03:19:07;;;;;;;7.60;5.90;;;;;;;;;;5047529;28;20202;-76
2023/01/23 03:21:36;;;;;;;7.20;6.00;;;;;;;;;;5059217;28;20249;-77
2023/01/23 03:24:04;;;;;;;7.10;5.97;;;;;;;;;;5062939;28;20203;-77
2023/01/23 03:26:31;;;;;;;7.67;6.87;;;;;;;;;;5062224;28;20782;-77
2023/01/23 03:31:44;;;;;;;7.23;6.13;;;;;;;;;;5064884;28;20714;-77
2023/01/23 03:34:12;;;;;;;6.80;6.10;;;;;;;;;;5057603;28;20205;-77
2023/01/23 03:36:40;;;;;;;6.47;5.70;;;;;;;;;;5069969;28;20204;-77
2023/01/23 03:41:54;;;;;;;6.73;5.30;;;;;;;;;;5064304;28;21363;-77
2023/01/23 03:44:21;;;;;;;6.83;5.60;;;;;;;;;;5051574;28;20211;-76
2023/01/23 03:46:49;;;;;;;7.37;6.00;;;;;;;;;;5046336;28;20617;-76
2023/01/23 03:49:16;;;;;;;7.63;5.93;;;;;;;;;;5047529;28;20929;-77
2023/01/23 03:51:44;;;;;;;7.00;5.80;;;;;;;;;;5048669;28;20298;-78
2023/01/23 03:54:13;;;;;;;5.73;5.17;;;;;;;;;;5044999;28;20260;-76
2023/01/23 03:56:41;;;;;;;6.70;6.00;;;;;;;;;;5050351;28;20210;-77
2023/01/23 03:59:08;;;;;;;7.27;6.23;;;;;;;;;;5044498;28;20916;-75
2023/01/23 04:01:37;;;;;;;6.00;5.40;;;;;;;;;;5046154;28;20238;-75
2023/01/23 04:04:04;;;;;;;5.83;5.23;;;;;;;;;;5047964;28;20210;-78
2023/01/23 04:06:32;;;;;;;6.17;5.33;;;;;;;;;;5045853;28;20889;-77
2023/01/23 04:08:59;;;;;;;7.87;5.50;;;;;;;;;;5049260;28;20699;-78
2023/01/23 04:11:27;;;;;;;6.87;5.23;;;;;;;;;;5044763;28;20361;-76
2023/01/23 04:13:54;;;;;;;6.07;5.33;;;;;;;;;;5050416;28;20209;-76
2023/01/23 04:16:22;;;;;;;6.30;5.67;;;;;;;;;;5048952;28;20713;-75
2023/01/23 04:18:50;;;;;;;7.50;5.90;;;;;;;;;;5050684;28;20288;-78
2023/01/23 04:21:17;;;;;;;5.37;4.87;;;;;;;;;;5043080;28;20243;-77
2023/01/23 04:23:45;;;;;;;6.07;5.20;;;;;;;;;;5048054;28;20298;-77
2023/01/23 04:26:12;;;;;;;6.33;5.10;;;;;;;;;;5041652;28;23249;-77
2023/01/23 04:28:39;;;;;;;8.40;7.00;;;;;;;;;;5050320;28;20222;-77
2023/01/23 04:31:08;;;;;;;23.07;14.60;;;;;;;;;;5033028;28;20316;-77
2023/01/23 04:33:35;;;;;;;13.77;8.50;;;;;;;;;;5043184;28;20203;-76
2023/01/23 04:36:04;;;;;;;33.93;17.77;;;;;;;;;;5043900;28;20291;-77
2023/01/23 04:38:32;;;;;;;360.27;163.83;;;;;;;;;;5044158;28;20234;-77
2023/01/23 04:40:59;;;;;;;215.57;88.33;;;;;;;;;;5040206;28;20227;-77
2023/01/23 04:43:27;;;;;;;11.87;8.47;;;;;;;;;;5040692;28;20301;-76
2023/01/23 04:45:54;;;;;;;9.03;6.93;;;;;;;;;;5045385;28;20210;-76
2023/01/23 04:48:22;;;;;;;9.30;7.30;;;;;;;;;;5039052;28;20226;-75
2023/01/23 04:50:49;;;;;;;9.33;7.13;;;;;;;;;;5043128;28;20593;-77
2023/01/23 04:53:17;;;;;;;54.03;24.73;;;;;;;;;;5040044;28;20208;-75
2023/01/23 04:55:47;;;;;;;10.33;7.70;;;;;;;;;;5040117;28;20255;-76
2023/01/23 04:58:14;;;;;;;10.40;8.10;;;;;;;;;;5039456;28;20600;-77
2023/01/23 05:00:41;;;;;;;9.67;6.70;;;;;;;;;;5037434;28;20226;-75
2023/01/23 05:03:09;;;;;;;9.87;7.60;;;;;;;;;;5045456;28;20296;-77
2023/01/23 05:05:36;;;;;;;9.27;6.90;;;;;;;;;;5040985;28;20211;-77
2023/01/23 05:08:04;;;;;;;10.40;7.53;;;;;;;;;;5044392;28;20250;-77
2023/01/23 05:10:31;;;;;;;10.40;7.80;;;;;;;;;;5042550;28;20223;-77
2023/01/23 05:13:00;;;;;;;9.37;7.50;;;;;;;;;;5046968;28;20208;-77
2023/01/23 05:15:27;;;;;;;9.90;7.20;;;;;;;;;;5031641;28;20310;-76
2023/01/23 05:17:56;;;;;;;9.57;7.53;;;;;;;;;;5046192;28;20301;-75
2023/01/23 05:20:24;;;;;;;8.73;7.03;;;;;;;;;;5048228;28;20258;-77
2023/01/23 05:22:51;;;;;;;9.73;7.70;;;;;;;;;;5049443;28;20211;-77
2023/01/23 05:25:20;;;;;;;16.37;10.77;;;;;;;;;;5045596;28;20278;-76
2023/01/23 05:27:47;;;;;;;12.13;8.80;;;;;;;;;;5048430;28;20227;-77
2023/01/23 05:30:14;;;;;;;10.13;8.77;;;;;;;;;;5035942;28;20318;-76
2023/01/23 05:32:42;;;;;;;9.67;8.43;;;;;;;;;;5042365;28;20463;-78
2023/01/23 05:35:10;;;;;;;12.40;8.57;;;;;;;;;;5067794;28;20209;-78
2023/01/23 05:37:37;;;;;;;9.50;8.00;;;;;;;;;;5061395;28;21437;-78
2023/01/23 05:40:07;;;;;;;11.43;8.97;;;;;;;;;;5059813;28;20228;-78
2023/01/23 05:42:34;;;;;;;11.93;9.17;;;;;;;;;;5049322;28;20211;-78
2023/01/23 05:45:02;;;;;;;12.23;9.10;;;;;;;;;;5050355;28;20274;-78
2023/01/23 05:47:29;;;;;;;14.13;10.03;;;;;;;;;;5043761;28;20223;-76
2023/01/23 05:49:57;;;;;;;15.80;10.47;;;;;;;;;;5048979;28;20236;-78
2023/01/23 05:52:24;;;;;;;12.13;9.27;;;;;;;;;;5040255;28;20224;-75
2023/01/23 05:54:51;;;;;;;12.73;9.17;;;;;;;;;;5043441;28;20205;-77
2023/01/23 05:57:18;;;;;;;14.80;10.37;;;;;;;;;;5049122;28;20206;-76
2023/01/23 05:59:46;;;;;;;15.27;10.77;;;;;;;;;;5047316;28;20213;-78
2023/01/23 06:02:13;;;;;;;17.30;11.00;;;;;;;;;;5044634;28;20216;-78
2023/01/23 06:04:40;;;;;;;19.23;12.67;;;;;;;;;;5046393;28;20231;-76
2023/01/23 06:07:12;;;;;;;17.03;11.60;;;;;;;;;;5037934;28;20257;-76
2023/01/23 06:09:40;;;;;;;18.47;11.93;;;;;;;;;;5029307;28;20234;-78
2023/01/23 06:12:08;;;;;;;15.90;11.17;;;;;;;;;;5046424;28;20210;-76
2023/01/23 06:14:35;;;;;;;20.47;12.17;;;;;;;;;;5044672;28;20305;-77
2023/01/23 06:17:02;;;;;;;17.43;12.00;;;;;;;;;;5055568;28;20706;-76
2023/01/23 06:19:30;;;;;;;37.37;21.07;;;;;;;;;;5043283;28;20297;-79
2023/01/23 06:21:57;;;;;;;20.90;13.27;;;;;;;;;;5050416;28;20735;-77
2023/01/23 06:24:24;;;;;;;25.87;14.03;;;;;;;;;;5028609;28;20216;-77
2023/01/23 06:26:51;;;;;;;17.10;11.97;;;;;;;;;;5050993;28;20879;-79
2023/01/23 06:29:18;;;;;;;23.07;12.70;;;;;;;;;;5027211;28;20255;-78
2023/01/23 06:31:46;;;;;;;23.50;12.83;;;;;;;;;;5051399;28;20249;-76
2023/01/23 06:34:14;;;;;;;21.37;11.77;;;;;;;;;;5031388;28;20210;-76
2023/01/23 06:36:41;;;;;;;19.17;11.23;;;;;;;;;;5033657;28;20202;-76
2023/01/23 06:39:12;;;;;;;28.87;13.53;;;;;;;;;;5047418;28;20240;-77
2023/01/23 06:41:39;;;;;;;26.27;12.57;;;;;;;;;;5051860;28;20263;-78
2023/01/23 06:44:06;;;;;;;31.33;13.13;;;;;;;;;;5047492;28;21553;-77
2023/01/23 06:46:34;;;;;;;22.10;12.63;;;;;;;;;;5051384;28;20201;-77
2023/01/23 06:49:01;;;;;;;17.20;11.00;;;;;;;;;;5043590;28;20239;-77
2023/01/23 06:51:32;;;;;;;18.57;11.77;;;;;;;;;;5033814;28;20222;-77
2023/01/23 06:53:59;;;;;;;17.60;11.13;;;;;;;;;;5044643;28;20210;-76
2023/01/23 06:56:26;;;;;;;14.27;10.90;;;;;;;;;;5049085;28;20198;-76
2023/01/23 06:58:55;;;;;;;17.93;11.87;;;;;;;;;;5028182;28;20486;-75
2023/01/23 07:01:22;;;;;;;15.50;10.67;;;;;;;;;;5046625;28;20234;-75
2023/01/23 07:03:50;;;;;;;15.77;10.43;;;;;;;;;;5046253;28;20288;-76
2023/01/23 07:06:17;;;;;;;16.77;10.90;;;;;;;;;;5049607;28;20552;-74
2023/01/23 07:08:45;;;;;;;21.93;14.23;;;;;;;;;;5031745;28;20221;-77
2023/01/23 07:11:12;;;;;;;18.23;10.60;;;;;;;;;;5044949;28;20309;-75
2023/01/23 07:13:40;;;;;;;13.10;9.87;;;;;;;;;;5048928;28;20573;-78
2023/01/23 07:16:07;;;;;;;15.77;11.03;;;;;;;;;;5048221;28;20566;-78
2023/01/23 07:18:35;;;;;;;14.67;10.50;;;;;;;;;;5049542;28;20213;-77
2023/01/23 07:21:04;;;;;;;15.20;10.23;;;;;;;;;;5042556;28;20229;-78
2023/01/23 07:23:31;;;;;;;15.27;11.10;;;;;;;;;;5079831;28;20205;-77
2023/01/23 07:26:00;;;;;;;14.50;10.73;;;;;;;;;;5068144;28;20308;-78
2023/01/23 07:28:27;;;;;;;15.90;10.80;;;;;;;;;;5055222;28;20291;-77
2023/01/23 07:30:54;;;;;;;17.10;11.03;;;;;;;;;;5064611;28;20218;-77
2023/01/23 07:33:21;;;;;;;19.47;12.13;;;;;;;;;;5059227;28;20221;-78
2023/01/23 07:35:49;;;;;;;16.60;11.60;;;;;;;;;;5067958;28;20205;-78
2023/01/23 07:38:16;;;;;;;18.60;11.93;;;;;;;;;;5085416;28;20289;-77
2023/01/23 07:40:44;;;;;;;16.57;12.03;;;;;;;;;;5071083;28;20302;-78
2023/01/23 07:43:11;;;;;;;19.40;13.27;;;;;;;;;;5055297;28;20205;-78
2023/01/23 07:45:40;;;;;;;18.07;12.80;;;;;;;;;;5053940;28;20201;-77
2023/01/23 07:48:07;;;;;;;15.73;12.10;;;;;;;;;;5045932;28;20257;-78
2023/01/23 07:50:36;;;;;;;16.87;11.23;;;;;;;;;;5050822;28;20226;-77
2023/01/23 07:53:04;;;;;;;14.20;10.63;;;;;;;;;;5034144;28;20206;-77
2023/01/23 07:55:32;;;;;;;16.20;11.73;;;;;;;;;;5047440;28;20220;-78
2023/01/23 07:57:59;;;;;;;17.63;12.10;;;;;;;;;;5049791;28;20206;-77
2023/01/23 08:00:26;;;;;;;23.30;13.37;;;;;;;;;;5042907;28;20315;-78
2023/01/23 08:02:56;;;;;;;18.80;12.43;;;;;;;;;;5050225;28;20292;-78
2023/01/23 08:05:24;;;;;;;15.97;11.30;;;;;;;;;;5033127;28;20293;-77
2023/01/23 08:07:51;;;;;;;16.83;11.20;;;;;;;;;;5048153;28;20229;-78
2023/01/23 08:10:38;;;;;;;14.80;10.53;;;;;;;;;;5046648;28;20227;-75
2023/01/23 08:13:05;;;;;;;12.73;9.43;;;;;;;;;;5050631;28;20250;-77
2023/01/23 08:15:32;;;;;;;15.60;10.80;;;;;;;;;;5047729;28;20311;-76
2023/01/23 08:18:00;;;;;;;12.53;10.00;;;;;;;;;;5048919;28;20682;-77
2023/01/23 08:20:27;;;;;;;13.13;9.63;;;;;;;;;;5044608;28;20272;-76
2023/01/23 08:22:56;;;;;;;15.77;11.33;;;;;;;;;;5046952;28;20215;-78
2023/01/23 08:25:23;;;;;;;14.33;10.43;;;;;;;;;;5034403;28;20285;-77
2023/01/23 08:27:50;;;;;;;14.90;10.17;;;;;;;;;;5042730;28;20874;-77
2023/01/23 08:30:18;;;;;;;13.93;10.43;;;;;;;;;;5043656;28;20235;-75
2023/01/23 08:32:46;;;;;;;14.77;10.67;;;;;;;;;;5048511;28;20695;-78
2023/01/23 08:35:13;;;;;;;15.00;10.20;;;;;;;;;;5045520;28;20672;-77
2023/01/23 08:37:41;;;;;;;13.43;9.90;;;;;;;;;;5048039;28;20731;-77
2023/01/23 08:40:08;;;;;;;13.63;10.40;;;;;;;;;;5043479;28;20326;-78
2023/01/23 08:42:36;;;;;;;13.47;9.90;;;;;;;;;;5049173;28;20271;-77
2023/01/23 08:45:03;;;;;;;15.73;10.70;;;;;;;;;;5048446;28;20207;-77
2023/01/23 08:47:35;;;;;;;14.17;10.27;;;;;;;;;;5046856;28;20200;-75
2023/01/23 08:50:04;;;;;;;14.50;10.00;;;;;;;;;;5033511;28;20219;-76
2023/01/23 08:52:33;;;;;;;13.27;9.23;;;;;;;;;;5029792;28;20260;-76
2023/01/23 08:55:00;;;;;;;13.87;10.07;;;;;;;;;;5047531;28;20306;-77
2023/01/23 08:57:28;;;;;;;13.60;10.10;;;;;;;;;;5039663;28;20208;-78
2023/01/23 08:59:55;;;;;;;13.63;10.20;;;;;;;;;;5043965;28;20298;-77
2023/01/23 09:02:22;;;;;;;14.93;10.83;;;;;;;;;;5044244;28;20263;-78
2023/01/23 09:04:50;;;;;;;14.93;10.43;;;;;;;;;;5045558;28;20266;-76
2023/01/23 09:07:17;;;;;;;14.47;10.40;;;;;;;;;;5049057;28;20294;-77
2023/01/23 09:09:44;;;;;;;12.80;9.73;;;;;;;;;;5024190;28;20235;-78
2023/01/23 09:12:11;;;;;;;14.73;11.07;;;;;;;;;;5045875;28;20218;-79
2023/01/23 09:14:39;;;;;;;14.77;10.13;;;;;;;;;;5042172;28;20230;-77
2023/01/23 09:17:06;;;;;;;16.27;10.97;;;;;;;;;;5058396;28;20315;-77
2023/01/23 09:19:33;;;;;;;15.70;11.30;;;;;;;;;;5046150;28;20205;-78
2023/01/23 09:22:00;;;;;;;14.73;10.30;;;;;;;;;;5041194;28;20275;-76
2023/01/23 09:24:27;;;;;;;13.87;10.23;;;;;;;;;;5048965;28;20232;-77
2023/01/23 09:26:55;;;;;;;15.90;10.93;;;;;;;;;;5042359;28;20311;-76
2023/01/23 09:29:22;;;;;;;12.67;9.60;;;;;;;;;;5044375;28;20239;-75
2023/01/23 09:31:49;;;;;;;13.77;10.30;;;;;;;;;;5045262;28;20233;-78
2023/01/23 09:34:16;;;;;;;15.83;11.00;;;;;;;;;;5058952;28;20211;-77
2023/01/23 09:36:43;;;;;;;39.23;22.07;;;;;;;;;;5065169;28;20289;-78
2023/01/23 09:39:11;;;;;;;43.43;22.97;;;;;;;;;;5075267;28;20244;-77
2023/01/23 09:41:39;;;;;;;16.23;11.60;;;;;;;;;;5073107;28;20290;-78
2023/01/23 09:44:12;;;;;;;17.57;12.43;;;;;;;;;;5055410;28;20866;-74
2023/01/23 09:46:44;;;;;;;15.23;10.17;;;;;;;;;;5053516;28;20216;-79
2023/01/23 09:49:24;;;;;;;13.83;10.83;;;;;;;;;;5044716;28;20233;-78
2023/01/23 09:52:07;;;;;;;14.80;10.93;;;;;;;;;;5046284;28;20224;-76
2023/01/23 09:54:42;;;;;;;14.30;10.60;;;;;;;;;;5047110;28;20222;-78
2023/01/23 09:57:34;;;;;;;13.00;10.30;;;;;;;;;;5050671;28;20210;-79
2023/01/23 10:00:23;;;;;;;12.13;9.27;;;;;;;;;;5049712;28;20229;-78
2023/01/23 10:02:52;;;;;;;10.67;8.77;;;;;;;;;;5048741;28;20228;-77
2023/01/23 10:05:25;;;;;;;12.27;9.00;;;;;;;;;;5053097;28;20233;-78
2023/01/23 10:07:53;;;;;;;12.10;9.13;;;;;;;;;;5049158;28;20210;-77
2023/01/23 10:10:43;;;;;;;12.10;8.97;;;;;;;;;;5049700;28;20313;-76
2023/01/23 10:13:18;;;;;;;12.60;9.27;;;;;;;;;;5038618;28;20540;-78
2023/01/23 10:16:09;;;;;;;13.50;10.10;;;;;;;;;;5049881;28;20208;-78
2023/01/23 10:18:42;;;;;;;12.63;9.67;;;;;;;;;;5040287;28;20216;-75
2023/01/23 10:21:09;;;;;;;10.87;8.63;;;;;;;;;;5033344;28;20240;-78
2023/01/23 10:23:36;;;;;;;10.53;8.20;;;;;;;;;;5049577;28;20282;-75
2023/01/23 10:26:04;;;;;;;12.97;8.93;;;;;;;;;;5049855;28;20243;-75
2023/01/23 10:28:37;;;;;;;12.30;9.10;;;;;;;;;;5053994;28;20717;-77
2023/01/23 10:31:08;;;;;;;15.07;9.87;;;;;;;;;;5047469;28;20225;-76
2023/01/23 10:33:40;;;;;;;12.70;9.17;;;;;;;;;;5043402;28;20225;-77
2023/01/23 10:36:18;;;;;;;11.30;9.30;;;;;;;;;;5048967;28;20208;-78
2023/01/23 10:38:56;;;;;;;12.17;9.60;;;;;;;;;;5046100;28;20290;-77
2023/01/23 10:41:24;;;;;;;11.43;8.70;;;;;;;;;;5029987;28;20226;-78
2023/01/23 10:43:53;;;;;;;12.60;8.90;;;;;;;;;;5025605;28;20746;-76
2023/01/23 10:46:22;;;;;;;11.53;8.77;;;;;;;;;;5046955;28;20241;-76
2023/01/23 10:48:50;;;;;;;10.43;8.73;;;;;;;;;;5049842;28;20225;-78
2023/01/23 10:51:26;;;;;;;12.67;8.87;;;;;;;;;;5046432;28;20959;-78
2023/01/23 10:54:04;;;;;;;13.73;9.77;;;;;;;;;;5045803;28;20698;-77
2023/01/23 10:56:33;;;;;;;12.23;8.90;;;;;;;;;;5049939;28;20205;-76
2023/01/23 10:59:01;;;;;;;10.60;8.63;;;;;;;;;;5047023;28;20264;-78
2023/01/23 11:01:30;;;;;;;11.70;8.50;;;;;;;;;;5049036;28;20735;-76
2023/01/23 11:04:08;;;;;;;12.07;8.93;;;;;;;;;;5049003;28;20779;-78
2023/01/23 11:06:35;;;;;;;10.80;8.07;;;;;;;;;;5049252;28;21531;-78
2023/01/23 11:09:03;;;;;;;10.73;8.00;;;;;;;;;;5049482;28;20312;-77
2023/01/23 11:11:31;;;;;;;10.20;8.00;;;;;;;;;;5046314;28;24342;-78
2023/01/23 11:14:21;;;;;;;11.50;8.80;;;;;;;;;;5048694;28;20198;-78
2023/01/23 11:16:58;;;;;;;12.30;8.40;;;;;;;;;;5052738;28;20230;-76
2023/01/23 11:19:26;;;;;;;11.67;8.50;;;;;;;;;;5050130;28;20575;-76
2023/01/23 11:21:53;;;;;;;12.40;8.73;;;;;;;;;;5061114;28;20329;-79
2023/01/23 11:24:21;;;;;;;13.30;9.27;;;;;;;;;;5064332;28;20210;-78
2023/01/23 11:27:15;;;;;;;12.40;8.67;;;;;;;;;;5068013;28;20205;-77
2023/01/23 11:30:01;;;;;;;11.97;9.03;;;;;;;;;;5066400;28;20262;-77
2023/01/23 11:32:30;;;;;;;13.40;9.93;;;;;;;;;;5066656;28;20268;-79
2023/01/23 11:35:27;;;;;;;12.23;9.03;;;;;;;;;;5061199;28;20195;-77
2023/01/23 11:37:55;;;;;;;13.17;9.47;;;;;;;;;;5043652;28;20201;-77
2023/01/23 11:40:23;;;;;;;14.67;10.90;;;;;;;;;;5065151;28;20225;-79
2023/01/23 11:42:51;;;;;;;15.70;10.43;;;;;;;;;;5069683;28;20635;-77
2023/01/23 11:45:38;;;;;;;14.30;10.17;;;;;;;;;;5071080;28;20240;-79
2023/01/23 11:48:32;;;;;;;14.37;9.37;;;;;;;;;;5039090;28;20287;-79
2023/01/23 11:51:07;;;;;;;13.90;9.90;;;;;;;;;;5038570;28;20891;-77
2023/01/23 11:53:49;;;;;;;13.20;9.30;;;;;;;;;;5063341;28;20208;-78
2023/01/23 11:56:28;;;;;;;14.83;9.03;;;;;;;;;;5061500;28;20232;-78
2023/01/23 11:59:07;;;;;;;13.00;9.47;;;;;;;;;;5060013;28;20213;-75
2023/01/23 12:02:01;;;;;;;14.80;9.33;;;;;;;;;;5061155;28;20660;-75
2023/01/23 12:04:39;;;;;;;13.37;9.30;;;;;;;;;;5048831;28;20285;-76
2023/01/23 12:07:15;;;;;;;16.33;10.63;;;;;;;;;;5065989;28;20233;-77
2023/01/23 12:09:54;;;;;;;14.40;10.00;;;;;;;;;;5054458;28;20723;-77
2023/01/23 12:12:47;;;;;;;13.90;10.00;;;;;;;;;;5064704;28;20201;-78
2023/01/23 12:15:14;;;;;;;12.53;9.20;;;;;;;;;;5065795;28;20202;-76
2023/01/23 12:17:43;;;;;;;13.37;9.47;;;;;;;;;;5068809;28;20770;-78
2023/01/23 12:20:28;;;;;;;13.80;9.27;;;;;;;;;;5067796;28;20229;-78
2023/01/23 12:23:08;;;;;;;13.57;9.03;;;;;;;;;;5070603;28;20211;-78
2023/01/23 12:25:39;;;;;;;13.63;9.60;;;;;;;;;;5063097;28;20601;-78
2023/01/23 12:28:18;;;;;;;15.87;9.83;;;;;;;;;;5061416;28;20300;-77
2023/01/23 12:31:04;;;;;;;14.13;9.10;;;;;;;;;;5066296;28;20308;-77
2023/01/23 12:33:40;;;;;;;12.27;9.17;;;;;;;;;;5064331;28;20201;-78
2023/01/23 12:36:10;;;;;;;12.63;9.03;;;;;;;;;;5051667;28;20197;-77
2023/01/23 12:38:46;;;;;;;12.87;9.33;;;;;;;;;;5046397;28;20201;-77
2023/01/23 12:41:26;;;;;;;14.70;9.80;;;;;;;;;;5050334;28;20734;-77
2023/01/23 12:44:22;;;;;;;12.40;8.90;;;;;;;;;;5052081;28;20216;-78
2023/01/23 12:46:50;;;;;;;14.63;9.90;;;;;;;;;;5040885;28;20205;-77
2023/01/23 12:49:30;;;;;;;13.87;9.93;;;;;;;;;;5046698;28;20809;-77
2023/01/23 12:52:04;;;;;;;13.53;9.73;;;;;;;;;;5049371;28;20793;-78
2023/01/23 12:54:58;;;;;;;12.77;8.90;;;;;;;;;;5051664;28;20198;-76
2023/01/23 12:57:50;;;;;;;10.50;8.47;;;;;;;;;;5050192;28;20206;-77
2023/01/23 13:00:49;;;;;;;14.13;9.03;;;;;;;;;;5046247;28;20233;-77
2023/01/23 13:03:19;;;;;;;13.03;8.80;;;;;;;;;;5048704;28;20206;-76
2023/01/23 13:06:01;;;;;;;13.07;8.87;;;;;;;;;;5030209;28;20233;-79
2023/01/23 13:08:49;;;;;;;13.07;9.17;;;;;;;;;;5027692;28;20205;-78
2023/01/23 13:11:39;;;;;;;9.33;7.43;;;;;;;;;;5048430;28;20319;-77
2023/01/23 13:14:25;;;;;;;11.90;7.83;;;;;;;;;;5027490;28;20229;-78
2023/01/23 13:17:24;;;;;;;11.50;7.87;;;;;;;;;;5046379;28;20229;-77
2023/01/23 13:22:37;;;;;;;12.17;8.90;;;;;;;;;;5068715;28;21052;-76
2023/01/23 13:25:16;;;;;;;12.57;9.47;;;;;;;;;;5065564;28;21375;-76
2023/01/23 13:27:49;;;;;;;12.67;9.07;;;;;;;;;;5070377;28;20202;-76
2023/01/23 13:30:25;;;;;;;11.97;9.57;;;;;;;;;;5071459;28;20232;-78
2023/01/23 13:32:53;;;;;;;12.77;9.17;;;;;;;;;;5066233;28;20211;-78
2023/01/23 13:35:41;;;;;;;9.83;7.93;;;;;;;;;;5068945;28;20671;-78
2023/01/23 13:38:25;;;;;;;11.07;7.73;;;;;;;;;;5060339;28;20209;-75
2023/01/23 13:41:04;;;;;;;11.83;8.13;;;;;;;;;;5064356;28;20301;-75
2023/01/23 13:43:49;;;;;;;10.73;8.70;;;;;;;;;;5072392;28;20205;-78
2023/01/23 13:46:16;;;;;;;12.53;8.93;;;;;;;;;;5070480;28;20288;-78
2023/01/23 13:56:37;;;;;;;11.00;8.07;;;;;;;;;;4984533;28;20651;-78
2023/01/23 13:58:33;;;;;;;9.53;7.67;;;;;;;;;;4882817;29;20211;-76
2023/01/23 14:10:26;;;;;;;10.03;7.83;;;;;;;;;;4883749;29;20246;-77
2023/01/23 14:13:10;;;;;;;12.00;7.60;;;;;;;;;;4892090;29;20296;-77
2023/01/23 14:16:09;;;;;;;11.60;8.30;;;;;;;;;;4850531;29;20219;-76
2023/01/23 14:18:54;;;;;;;11.97;8.63;;;;;;;;;;4847900;29;20261;-75
2023/01/23 14:21:40;;;;;;;11.57;8.43;;;;;;;;;;4852998;29;20247;-77
2023/01/23 14:24:23;;;;;;;9.67;7.90;;;;;;;;;;4901493;28;20212;-78
2023/01/23 14:26:51;;;;;;;10.17;7.87;;;;;;;;;;4967357;28;20204;-78
2023/01/23 14:29:20;;;;;;;12.43;8.53;;;;;;;;;;5042762;28;20218;-76
2023/01/23 14:31:47;;;;;;;11.30;8.67;;;;;;;;;;5043714;28;20218;-74
2023/01/23 14:34:16;;;;;;;12.33;8.67;;;;;;;;;;5028359;28;20272;-76
2023/01/23 14:36:46;;;;;;;14.90;8.63;;;;;;;;;;5043758;28;20210;-77
2023/01/23 14:39:21;;;;;;;10.77;7.90;;;;;;;;;;5044422;28;20206;-76
2023/01/23 14:41:49;;;;;;;11.07;8.33;;;;;;;;;;5048009;28;20392;-78
2023/01/23 14:44:21;;;;;;;11.97;7.83;;;;;;;;;;5044445;28;20712;-75
2023/01/23 14:46:57;;;;;;;10.60;8.10;;;;;;;;;;5044751;28;20396;-78
2023/01/23 14:49:30;;;;;;;12.20;8.70;;;;;;;;;;5041526;28;20869;-77
2023/01/23 14:52:02;;;;;;;11.67;8.10;;;;;;;;;;5041315;28;20281;-76
2023/01/23 14:54:30;;;;;;;10.87;8.30;;;;;;;;;;5050476;28;20214;-75
2023/01/23 14:57:00;;;;;;;12.27;8.77;;;;;;;;;;5042072;28;20280;-78
2023/01/23 14:59:30;;;;;;;14.87;9.47;;;;;;;;;;5045973;28;20293;-74
2023/01/23 15:01:59;;;;;;;24.80;15.67;;;;;;;;;;5044346;28;20707;-78
2023/01/23 15:04:31;;;;;;;15.47;10.60;;;;;;;;;;5026431;28;20194;-77
2023/01/23 15:06:59;;;;;;;25.37;13.63;;;;;;;;;;5047730;28;20206;-77
2023/01/23 15:09:31;;;;;;;25.67;15.70;;;;;;;;;;5044645;28;20202;-77
2023/01/23 15:12:17;;;;;;;26.03;15.47;;;;;;;;;;5047934;28;20221;-78
2023/01/23 15:14:45;;;;;;;126.53;51.20;;;;;;;;;;5049380;28;20251;-76
2023/01/23 15:17:14;;;;;;;60.10;28.60;;;;;;;;;;5045907;28;20202;-74